Revere, Minnesota
Current Conditions -  °F | °C
As of 4:33 AM on Wednesday 22 Oct 2014 (Local Time) from KTKC Reporting Station
Overcast Overcast  
Wind Chill: 50°   Ceiling: 6000
Heat Index: 50°   Visibility: 10mi
Dew Point: 41°   Wind: 16mph
Humidity: 71%   Direction: 180°S
Pressure: 30.04"   Gusts: 26mph
Location:  44.22°N, 95.36°W
Report Text: KTKC 220933Z AUTO 18014G23KT 10SM OVC060 10/05 A3004 RMK AO2 T01000050
Loading
Personal Weather Stations






























Interactive Weather Map
Tropical Storm Tracking
New forecast layout! Learn more

10-Day Weather Forecast

Advertisements
Track Severe Weather on mobile